»·PEaware :: N9915H KTNP-KRNM

N9915H :: KTNP-KRNM

FLIGHT INFORMATION

Flight Status: Arrived
Operator: Privately registered:
United States
More flights under this callsign
Pilot: Charlton B. (28558)
Aircraft: BEECH AIRCRAFT BONANZA
(BE36)
More flights by this aircraft type
Origin: KTNP Twentynine Palms
United States
Destination: KRNM Ramona
United States
More flights between these airports :: More routes between these airports
Route: +TNP TRM JLI
File this flight plan on PilotEdge
Remarks:
Altitude:
(Current/Filed)
10,000ft
Speed:
(Current/Filed)
140kts
Departed: 25-Nov-20 06:05 PM
Arrived: 25-Nov-20 06:47 PM
Distance/Time
Traveled:
81nm/0:41
Distance/Time
To Go:
Arrived

Flight Plot

Page will automatically refresh every two minutes.

Flight plan parsing failed; only flown route is shown


Map Options




Map Legend


Flown Route
Filed Route
Departure Airport
Arrival Airport
Navaid (VOR, NDB)
Fix

Horizontal Profiles

Position Reports

Time Latitude Longitude Heading Altitude Ground
Speed
25-Nov-20 17:44 34.135556 -115.944689 0 1886ft 0kts
25-Nov-20 17:45 34.135556 -115.944689 0 1886ft 0kts
25-Nov-20 17:46 34.135556 -115.944689 0 1886ft 0kts
25-Nov-20 17:47 34.135556 -115.944689 0 1886ft 0kts
25-Nov-20 17:48 34.135556 -115.944689 0 1886ft 0kts
25-Nov-20 17:49 34.135556 -115.944689 0 1886ft 0kts
25-Nov-20 17:50 34.135556 -115.944689 0 1886ft 0kts
25-Nov-20 17:51 34.135556 -115.944689 0 1886ft 0kts
25-Nov-20 17:52 34.135556 -115.944689 0 1886ft 0kts
25-Nov-20 17:53 34.135556 -115.944689 0 1886ft 0kts
25-Nov-20 17:54 34.135589 -115.944740 271 1885ft 0kts
25-Nov-20 17:55 34.135222 -115.947821 270 1888ft 21kts
25-Nov-20 17:56 34.135286 -115.953377 183 1890ft 5kts
25-Nov-20 17:57 34.135274 -115.953377 174 1890ft 0kts
25-Nov-20 17:58 34.135274 -115.953377 174 1890ft 0kts
25-Nov-20 17:59 34.135274 -115.953377 174 1890ft 0kts
25-Nov-20 18:00 34.135274 -115.953377 174 1890ft 0kts
25-Nov-20 18:01 34.135274 -115.953377 174 1890ft 0kts
25-Nov-20 18:02 34.135274 -115.953377 174 1890ft 0kts
25-Nov-20 18:03 34.134375 -115.953199 109 1891ft 11kts
25-Nov-20 18:04 34.134549 -115.932932 99 2355ft 90kts
25-Nov-20 18:05 34.131151 -115.894602 104 3141ft 135kts
25-Nov-20 18:06 34.124033 -115.848942 104 4130ft 136kts
25-Nov-20 18:07 34.117331 -115.804581 104 5209ft 132kts
25-Nov-20 18:08 34.110593 -115.760947 104 6195ft 133kts
25-Nov-20 18:09 34.133359 -115.748893 289 7175ft 110kts
25-Nov-20 18:10 34.116307 -115.766265 185 8166ft 106kts
25-Nov-20 18:11 34.093327 -115.784552 221 8915ft 109kts
25-Nov-20 18:12 34.066711 -115.806805 220 9540ft 122kts
25-Nov-20 18:13 34.037577 -115.830618 220 10028ft 137kts
25-Nov-20 18:14 34.002878 -115.858924 219 10028ft 160kts
25-Nov-20 18:15 33.965023 -115.889470 219 10026ft 166kts
25-Nov-20 18:16 33.926562 -115.920507 219 10025ft 167kts
25-Nov-20 18:17 33.887936 -115.951684 219 10019ft 167kts
25-Nov-20 18:18 33.849357 -115.982772 219 10013ft 167kts
25-Nov-20 18:19 33.810706 -116.013892 218 10007ft 166kts
25-Nov-20 18:20 33.772227 -116.044846 218 10001ft 166kts
25-Nov-20 18:21 33.733782 -116.075732 218 9993ft 166kts
25-Nov-20 18:22 33.695412 -116.106526 218 9985ft 166kts
25-Nov-20 18:23 33.656936 -116.137308 219 9979ft 170kts
25-Nov-20 18:24 33.616513 -116.170735 221 9979ft 180kts
25-Nov-20 18:25 33.575807 -116.206412 221 9978ft 182kts
25-Nov-20 18:26 33.534847 -116.242336 221 9978ft 183kts
25-Nov-20 18:27 33.493774 -116.278336 221 9978ft 183kts
25-Nov-20 18:28 33.452582 -116.314383 221 9978ft 183kts
25-Nov-20 18:29 33.411471 -116.350316 221 9978ft 183kts
25-Nov-20 18:30 33.370175 -116.386385 221 9978ft 183kts
25-Nov-20 18:31 33.329443 -116.422010 220 9977ft 175kts
25-Nov-20 18:32 33.290977 -116.455302 221 9984ft 167kts
25-Nov-20 18:34 33.253368 -116.488016 221 9996ft 167kts
25-Nov-20 18:35 33.218506 -116.518072 222 9428ft 137kts
25-Nov-20 18:36 33.190121 -116.542919 223 8861ft 126kts
25-Nov-20 18:37 33.162000 -116.567272 223 8684ft 120kts
25-Nov-20 18:38 33.138014 -116.596688 250 7986ft 127kts
25-Nov-20 18:39 33.125009 -116.636070 253 6704ft 134kts
25-Nov-20 18:40 33.110667 -116.679993 251 6623ft 139kts
25-Nov-20 18:41 33.097610 -116.720890 251 5210ft 144kts
25-Nov-20 18:42 33.082649 -116.767958 251 5090ft 152kts
25-Nov-20 18:43 33.068419 -116.814349 252 4592ft 137kts
25-Nov-20 18:44 33.057020 -116.853681 252 3838ft 116kts
25-Nov-20 18:45 33.041857 -116.884045 227 2420ft 102kts
25-Nov-20 18:46 33.038442 -116.910601 280 1392ft 61kts
25-Nov-20 18:47 33.039511 -116.913064 102 1391ft 19kts

Navigation Log

Ident Type
Flight plan parsing failed, navigation log unavailable